Time;durP1;ratioP1;P1;durP2;ratioP2;P2;SDS_P1;SDS_P2;PMS_P1;PMS_P2;Temp;Humidity;BMP_temperature;BMP_pressure;BME280_temperature;BME280_humidity;BME280_pressure;Samples;Min_cycle;Max_cycle;Signal;HPM_P1;HPM_P2
2021/01/16 00:02:25;;;;;;;;;;;;;;;;;;5053991;28;19997;-64
2021/01/16 00:04:51;;;;;;;;;;;;;;;;;;5053763;28;20369;-63
2021/01/16 00:07:17;;;;;;;;;;;;;;;;;;5053730;28;19962;-63
2021/01/16 00:09:43;;;;;;;;;;;;;;;;;;5053735;28;20376;-63
2021/01/16 00:12:09;;;;;;;;;;;;;;;;;;5053596;28;20041;-63
2021/01/16 00:14:35;;;;;;;;;;;;;;;;;;5054018;28;19921;-62
2021/01/16 00:17:01;;;;;;;;;;;;;;;;;;5053653;28;19948;-64
2021/01/16 00:19:27;;;;;;;;;;;;;;;;;;5053939;28;19948;-64
2021/01/16 00:21:53;;;;;;;;;;;;;;;;;;5053633;28;20362;-63
2021/01/16 00:24:19;;;;;;;;;;;;;;;;;;5053487;28;19976;-63
2021/01/16 00:26:45;;;;;;;;;;;;;;;;;;5053844;28;19909;-62
2021/01/16 00:29:11;;;;;;;;;;;;;;;;;;5053351;28;20338;-64
2021/01/16 00:31:37;;;;;;;;;;;;;;;;;;5053622;28;19912;-64
2021/01/16 00:34:03;;;;;;;;;;;;;;;;;;5053652;28;19952;-63
2021/01/16 00:36:29;;;;;;;;;;;;;;;;;;5053551;28;19976;-63
2021/01/16 00:38:55;;;;;;;;;;;;;;;;;;5054503;28;20033;-63
2021/01/16 00:41:21;;;;;;;;;;;;;;;;;;5057515;28;20323;-63
2021/01/16 00:43:47;;;;;;;;;;;;;;;;;;5057827;28;19951;-63
2021/01/16 00:46:13;;;;;;;;;;;;;;;;;;5057605;28;20433;-64
2021/01/16 00:48:39;;;;;;;;;;;;;;;;;;5039379;28;19909;-64
2021/01/16 00:51:05;;;;;;;;;;;;;;;;;;5057186;28;19971;-63
2021/01/16 00:53:31;;;;;;;;;;;;;;;;;;5057362;28;19948;-63
2021/01/16 00:55:56;;;;;;;;;;;;;;;;;;5057703;28;19947;-64
2021/01/16 00:58:22;;;;;;;;;;;;;;;;;;5057415;28;19909;-65
2021/01/16 01:00:48;;;;;;;;;;;;;;;;;;5081175;23;19937;-62
2021/01/16 01:03:14;;;;;;;;;;;;;;;;;;5083229;28;19950;-62
2021/01/16 01:05:40;;;;;;;;;;;;;;;;;;5095726;28;19929;-62
2021/01/16 01:08:06;;;;;;;;;;;;;;;;;;5097400;28;19923;-62
2021/01/16 01:10:32;;;;;;;;;;;;;;;;;;5097524;28;19955;-62
2021/01/16 01:12:58;;;;;;;;;;;;;;;;;;5096039;28;19915;-61
2021/01/16 01:15:24;;;;;;;;;;;;;;;;;;5097451;28;19914;-62
2021/01/16 01:17:50;;;;;;;;;;;;;;;;;;5097302;28;20357;-61
2021/01/16 01:20:16;;;;;;;;;;;;;;;;;;5097242;28;19915;-62
2021/01/16 01:22:42;;;;;;;;;;;;;;;;;;5096845;28;20004;-62
2021/01/16 01:25:08;;;;;;;;;;;;;;;;;;5095692;28;19916;-61
2021/01/16 01:27:34;;;;;;;;;;;;;;;;;;5097092;28;19912;-61
2021/01/16 01:30:00;;;;;;;;;;;;;;;;;;5096799;28;19930;-62
2021/01/16 01:32:26;;;;;;;;;;;;;;;;;;5096866;28;19908;-62
2021/01/16 01:34:52;;;;;;;;;;;;;;;;;;5097105;28;19915;-61
2021/01/16 01:37:18;;;;;;;;;;;;;;;;;;5097063;28;19948;-62
2021/01/16 01:39:44;;;;;;;;;;;;;;;;;;5096558;28;20418;-62
2021/01/16 01:42:10;;;;;;;;;;;;;;;;;;5096565;28;19969;-62
2021/01/16 01:44:36;;;;;;;;;;;;;;;;;;5096892;28;19923;-61
2021/01/16 01:47:02;;;;;;;;;;;;;;;;;;5096616;28;20335;-62
2021/01/16 01:49:28;;;;;;;;;;;;;;;;;;5096193;28;19995;-61
2021/01/16 01:51:54;;;;;;;;;;;;;;;;;;5096600;28;19912;-61
2021/01/16 01:54:20;;;;;;;;;;;;;;;;;;5096455;28;19920;-61
2021/01/16 01:56:46;;;;;;;;;;;;;;;;;;5096397;28;19915;-61
2021/01/16 01:59:12;;;;;;;;;;;;;;;;;;5096210;28;19908;-61
2021/01/16 02:01:38;;;;;;;;;;;;;;;;;;5096278;28;19954;-62
2021/01/16 02:04:04;;;;;;;;;;;;;;;;;;5096325;28;20288;-61
2021/01/16 02:06:30;;;;;;;;;;;;;;;;;;5096102;28;20011;-61
2021/01/16 02:08:56;;;;;;;;;;;;;;;;;;5096155;28;19915;-61
2021/01/16 02:11:22;;;;;;;;;;;;;;;;;;5096378;28;19946;-62
2021/01/16 02:13:48;;;;;;;;;;;;;;;;;;5096228;28;20372;-62
2021/01/16 02:16:14;;;;;;;;;;;;;;;;;;5095915;28;19953;-62
2021/01/16 02:18:40;;;;;;;;;;;;;;;;;;5096276;28;20015;-61
2021/01/16 02:21:06;;;;;;;;;;;;;;;;;;5095794;28;20273;-61
2021/01/16 02:23:32;;;;;;;;;;;;;;;;;;5095902;28;19937;-61
2021/01/16 02:25:58;;;;;;;;;;;;;;;;;;5095849;28;19908;-61
2021/01/16 02:28:24;;;;;;;;;;;;;;;;;;5095776;28;20035;-61
2021/01/16 02:30:50;;;;;;;;;;;;;;;;;;5095975;28;19928;-61
2021/01/16 02:33:16;;;;;;;;;;;;;;;;;;5095778;28;20358;-62
2021/01/16 02:35:42;;;;;;;;;;;;;;;;;;5095802;28;19919;-62
2021/01/16 02:38:08;;;;;;;;;;;;;;;;;;5095597;28;19919;-62
2021/01/16 02:40:34;;;;;;;;;;;;;;;;;;5095374;28;19912;-62
2021/01/16 02:43:00;;;;;;;;;;;;;;;;;;5095926;28;19923;-62
2021/01/16 02:45:26;;;;;;;;;;;;;;;;;;5095404;28;20357;-62
2021/01/16 02:47:52;;;;;;;;;;;;;;;;;;5095712;28;19908;-62
2021/01/16 02:50:18;;;;;;;;;;;;;;;;;;5095331;28;19908;-61
2021/01/16 02:52:44;;;;;;;;;;;;;;;;;;5095571;28;20357;-61
2021/01/16 02:55:10;;;;;;;;;;;;;;;;;;5095552;28;19971;-61
2021/01/16 02:57:36;;;;;;;;;;;;;;;;;;5095613;28;19922;-62
2021/01/16 03:00:02;;;;;;;;;;;;;;;;;;5095034;28;20403;-62
2021/01/16 03:02:28;;;;;;;;;;;;;;;;;;5094738;28;19958;-62
2021/01/16 03:04:54;;;;;;;;;;;;;;;;;;5094912;28;19919;-62
2021/01/16 03:07:20;;;;;;;;;;;;;;;;;;5095239;28;20041;-61
2021/01/16 03:09:46;;;;;;;;;;;;;;;;;;5095290;28;19916;-61
2021/01/16 03:12:12;;;;;;;;;;;;;;;;;;5095068;28;19950;-62
2021/01/16 03:14:38;;;;;;;;;;;;;;;;;;5095270;28;20032;-61
2021/01/16 03:17:04;;;;;;;;;;;;;;;;;;5094765;28;20021;-62
2021/01/16 03:19:30;;;;;;;;;;;;;;;;;;5094804;28;19908;-61
2021/01/16 03:21:56;;;;;;;;;;;;;;;;;;5094822;28;19944;-61
2021/01/16 03:24:22;;;;;;;;;;;;;;;;;;5094714;28;19941;-61
2021/01/16 03:26:48;;;;;;;;;;;;;;;;;;5094731;28;20029;-61
2021/01/16 03:29:14;;;;;;;;;;;;;;;;;;5094926;28;19912;-62
2021/01/16 03:31:40;;;;;;;;;;;;;;;;;;5094544;28;19946;-62
2021/01/16 03:34:06;;;;;;;;;;;;;;;;;;5094489;28;20361;-61
2021/01/16 03:36:32;;;;;;;;;;;;;;;;;;5094569;28;19915;-61
2021/01/16 03:38:58;;;;;;;;;;;;;;;;;;5094829;28;20006;-61
2021/01/16 03:41:24;;;;;;;;;;;;;;;;;;5094525;28;19954;-62
2021/01/16 03:43:50;;;;;;;;;;;;;;;;;;5094549;28;19948;-62
2021/01/16 03:46:16;;;;;;;;;;;;;;;;;;5094290;28;20335;-61
2021/01/16 03:48:42;;;;;;;;;;;;;;;;;;5094601;28;19908;-60
2021/01/16 03:51:08;;;;;;;;;;;;;;;;;;5094172;28;20311;-59
2021/01/16 03:53:34;;;;;;;;;;;;;;;;;;5094115;28;19915;-59
2021/01/16 03:56:00;;;;;;;;;;;;;;;;;;5094050;28;19948;-59
2021/01/16 03:58:26;;;;;;;;;;;;;;;;;;5094473;28;19947;-60
2021/01/16 04:00:52;;;;;;;;;;;;;;;;;;5093954;28;20276;-60
2021/01/16 04:03:18;;;;;;;;;;;;;;;;;;5092865;28;19912;-59
2021/01/16 04:05:44;;;;;;;;;;;;;;;;;;5094102;28;19912;-59
2021/01/16 04:08:10;;;;;;;;;;;;;;;;;;5094348;28;19943;-59
2021/01/16 04:10:36;;;;;;;;;;;;;;;;;;5094435;28;19922;-59
2021/01/16 04:13:02;;;;;;;;;;;;;;;;;;5094093;28;20384;-59
2021/01/16 04:15:28;;;;;;;;;;;;;;;;;;5094248;28;19915;-59
2021/01/16 04:17:54;;;;;;;;;;;;;;;;;;5094008;28;20045;-59
2021/01/16 04:20:20;;;;;;;;;;;;;;;;;;5093883;28;20377;-60
2021/01/16 04:22:46;;;;;;;;;;;;;;;;;;5093749;28;20431;-60
2021/01/16 04:25:12;;;;;;;;;;;;;;;;;;5092560;28;19915;-60
2021/01/16 04:27:38;;;;;;;;;;;;;;;;;;5093790;28;19944;-60
2021/01/16 04:30:04;;;;;;;;;;;;;;;;;;5093647;28;19951;-60
2021/01/16 04:32:30;;;;;;;;;;;;;;;;;;5093603;28;19923;-60
2021/01/16 04:34:56;;;;;;;;;;;;;;;;;;5094102;28;19938;-60
2021/01/16 04:37:22;;;;;;;;;;;;;;;;;;5093537;28;20352;-60
2021/01/16 04:39:48;;;;;;;;;;;;;;;;;;5093995;28;19947;-60
2021/01/16 04:42:14;;;;;;;;;;;;;;;;;;5093471;28;19920;-60
2021/01/16 04:44:40;;;;;;;;;;;;;;;;;;5093632;28;19923;-60
2021/01/16 04:47:06;;;;;;;;;;;;;;;;;;5093463;28;19953;-59
2021/01/16 04:49:32;;;;;;;;;;;;;;;;;;5093660;28;19933;-60
2021/01/16 04:51:58;;;;;;;;;;;;;;;;;;5093485;28;20361;-59
2021/01/16 04:54:24;;;;;;;;;;;;;;;;;;5093470;28;19912;-60
2021/01/16 04:56:50;;;;;;;;;;;;;;;;;;5093449;28;20015;-60
2021/01/16 04:59:16;;;;;;;;;;;;;;;;;;5093830;28;20048;-60
2021/01/16 05:01:42;;;;;;;;;;;;;;;;;;5093138;28;20451;-58
2021/01/16 05:04:08;;;;;;;;;;;;;;;;;;5093596;28;19919;-60
2021/01/16 05:06:34;;;;;;;;;;;;;;;;;;5093637;28;20353;-60
2021/01/16 05:09:00;;;;;;;;;;;;;;;;;;5093321;28;19926;-60
2021/01/16 05:11:26;;;;;;;;;;;;;;;;;;5093378;28;20403;-60
2021/01/16 05:13:52;;;;;;;;;;;;;;;;;;5093434;28;19943;-59
2021/01/16 05:16:18;;;;;;;;;;;;;;;;;;5093329;28;19918;-60
2021/01/16 05:18:44;;;;;;;;;;;;;;;;;;5093237;28;19927;-59
2021/01/16 05:21:10;;;;;;;;;;;;;;;;;;5093486;28;19945;-60
2021/01/16 05:23:36;;;;;;;;;;;;;;;;;;5093382;28;20288;-60
2021/01/16 05:26:02;;;;;;;;;;;;;;;;;;5095796;28;19908;-60
2021/01/16 05:28:28;;;;;;;;;;;;;;;;;;5096782;28;20015;-60
2021/01/16 05:30:54;;;;;;;;;;;;;;;;;;5097013;28;19948;-60
2021/01/16 05:33:20;;;;;;;;;;;;;;;;;;5096691;28;19951;-60
2021/01/16 05:35:46;;;;;;;;;;;;;;;;;;5096843;28;19919;-58
2021/01/16 05:38:13;;;;;;;;;;;;;;;;;;5096750;28;19995;-60
2021/01/16 05:40:39;;;;;;;;;;;;;;;;;;5096550;28;19964;-61
2021/01/16 05:43:05;;;;;;;;;;;;;;;;;;5096849;28;20270;-60
2021/01/16 05:45:31;;;;;;;;;;;;;;;;;;5096681;28;19970;-60
2021/01/16 05:47:57;;;;;;;;;;;;;;;;;;5096712;28;19912;-59
2021/01/16 05:50:23;;;;;;;;;;;;;;;;;;5096859;28;19951;-59
2021/01/16 05:52:49;;;;;;;;;;;;;;;;;;5095145;28;20407;-60
2021/01/16 05:55:15;;;;;;;;;;;;;;;;;;5096764;28;19989;-60
2021/01/16 05:57:41;;;;;;;;;;;;;;;;;;5096271;28;20283;-60
2021/01/16 06:00:07;;;;;;;;;;;;;;;;;;5096455;28;19908;-59
2021/01/16 06:02:32;;;;;;;;;;;;;;;;;;5096259;28;19956;-60
2021/01/16 06:04:58;;;;;;;;;;;;;;;;;;5096175;28;19959;-60
2021/01/16 06:07:24;;;;;;;;;;;;;;;;;;5096869;28;19931;-59
2021/01/16 06:09:50;;;;;;;;;;;;;;;;;;5096158;28;20318;-60
2021/01/16 06:12:16;;;;;;;;;;;;;;;;;;5096430;28;19908;-58
2021/01/16 06:14:42;;;;;;;;;;;;;;;;;;5096560;28;20454;-59
2021/01/16 06:17:08;;;;;;;;;;;;;;;;;;5095951;28;19953;-60
2021/01/16 06:19:34;;;;;;;;;;;;;;;;;;5096038;28;19950;-59
2021/01/16 06:22:00;;;;;;;;;;;;;;;;;;5096147;28;19956;-60
2021/01/16 06:24:26;;;;;;;;;;;;;;;;;;5095733;28;19986;-59
2021/01/16 06:26:52;;;;;;;;;;;;;;;;;;5095918;28;19969;-60
2021/01/16 06:29:18;;;;;;;;;;;;;;;;;;5079344;28;19919;-60
2021/01/16 06:31:44;;;;;;;;;;;;;;;;;;5075789;28;19930;-60
2021/01/16 06:34:10;;;;;;;;;;;;;;;;;;5097876;28;20318;-59
2021/01/16 06:36:36;;;;;;;;;;;;;;;;;;5085493;28;19946;-59
2021/01/16 06:39:02;;;;;;;;;;;;;;;;;;5103206;28;19909;-59
2021/01/16 06:41:28;;;;;;;;;;;;;;;;;;5095581;28;19947;-59
2021/01/16 06:43:54;;;;;;;;;;;;;;;;;;5095487;28;19912;-59
2021/01/16 06:46:20;;;;;;;;;;;;;;;;;;5095870;28;19932;-60
2021/01/16 06:48:46;;;;;;;;;;;;;;;;;;5095269;28;20240;-59
2021/01/16 06:51:12;;;;;;;;;;;;;;;;;;5095479;28;19958;-60
2021/01/16 06:53:38;;;;;;;;;;;;;;;;;;5095270;28;19908;-60
2021/01/16 06:56:04;;;;;;;;;;;;;;;;;;5095363;28;19912;-60
2021/01/16 06:58:30;;;;;;;;;;;;;;;;;;5093939;28;20020;-60
2021/01/16 07:00:56;;;;;;;;;;;;;;;;;;5095493;28;19955;-59
2021/01/16 07:03:22;;;;;;;;;;;;;;;;;;5094392;28;20361;-60
2021/01/16 07:05:48;;;;;;;;;;;;;;;;;;5087302;28;19962;-60
2021/01/16 07:08:14;;;;;;;;;;;;;;;;;;5075003;28;19934;-60
2021/01/16 07:10:40;;;;;;;;;;;;;;;;;;5074849;28;20452;-60
2021/01/16 07:13:06;;;;;;;;;;;;;;;;;;5074633;28;19908;-60
2021/01/16 07:15:32;;;;;;;;;;;;;;;;;;5074852;28;19920;-59
2021/01/16 07:17:58;;;;;;;;;;;;;;;;;;5089869;28;19988;-60
2021/01/16 07:20:24;;;;;;;;;;;;;;;;;;5094805;28;19965;-60
2021/01/16 07:22:50;;;;;;;;;;;;;;;;;;5095114;28;19930;-60
2021/01/16 07:25:16;;;;;;;;;;;;;;;;;;5096010;28;19922;-59
2021/01/16 07:27:42;;;;;;;;;;;;;;;;;;5095890;28;19942;-60
2021/01/16 07:30:08;;;;;;;;;;;;;;;;;;5094805;28;20258;-60
2021/01/16 07:32:34;;;;;;;;;;;;;;;;;;5094903;28;19926;-60
2021/01/16 07:35:00;;;;;;;;;;;;;;;;;;5084916;28;20469;-60
2021/01/16 07:37:26;;;;;;;;;;;;;;;;;;5076598;28;20000;-60
2021/01/16 07:39:52;;;;;;;;;;;;;;;;;;5074546;28;19943;-60
2021/01/16 07:42:18;;;;;;;;;;;;;;;;;;5082318;28;19963;-59
2021/01/16 07:44:44;;;;;;;;;;;;;;;;;;5080042;28;19920;-59
2021/01/16 07:47:10;;;;;;;;;;;;;;;;;;5083522;28;19949;-60
2021/01/16 07:49:36;;;;;;;;;;;;;;;;;;5073614;28;19928;-59
2021/01/16 07:52:02;;;;;;;;;;;;;;;;;;5073980;28;19921;-60
2021/01/16 07:54:27;;;;;;;;;;;;;;;;;;5088800;28;19915;-60
2021/01/16 07:56:53;;;;;;;;;;;;;;;;;;5094428;28;20349;-60
2021/01/16 07:59:19;;;;;;;;;;;;;;;;;;5094079;28;19909;-60
2021/01/16 08:01:46;;;;;;;;;;;;;;;;;;5091691;28;20053;-61
2021/01/16 08:04:12;;;;;;;;;;;;;;;;;;5094399;28;20297;-60
2021/01/16 08:06:38;;;;;;;;;;;;;;;;;;5088200;28;20053;-61
2021/01/16 08:09:04;;;;;;;;;;;;;;;;;;5074016;28;20080;-61
2021/01/16 08:11:30;;;;;;;;;;;;;;;;;;5073781;28;19923;-59
2021/01/16 08:13:56;;;;;;;;;;;;;;;;;;5093716;28;19909;-61
2021/01/16 08:16:22;;;;;;;;;;;;;;;;;;5094056;28;19915;-61
2021/01/16 08:18:48;;;;;;;;;;;;;;;;;;5094163;28;19923;-61
2021/01/16 08:21:14;;;;;;;;;;;;;;;;;;5085321;28;19954;-60
2021/01/16 08:23:40;;;;;;;;;;;;;;;;;;5082799;28;19915;-60
2021/01/16 08:26:06;;;;;;;;;;;;;;;;;;5093580;28;20411;-60
2021/01/16 08:28:32;;;;;;;;;;;;;;;;;;5093700;28;19950;-60
2021/01/16 08:30:58;;;;;;;;;;;;;;;;;;5086336;28;19946;-60
2021/01/16 08:33:24;;;;;;;;;;;;;;;;;;5091351;28;19955;-60
2021/01/16 08:35:50;;;;;;;;;;;;;;;;;;5093771;28;19916;-60
2021/01/16 08:38:16;;;;;;;;;;;;;;;;;;5085694;28;20311;-60
2021/01/16 08:40:42;;;;;;;;;;;;;;;;;;5076829;28;19919;-61
2021/01/16 08:43:08;;;;;;;;;;;;;;;;;;5073459;28;19908;-60
2021/01/16 08:45:34;;;;;;;;;;;;;;;;;;5080623;28;20029;-62
2021/01/16 08:48:00;;;;;;;;;;;;;;;;;;5088833;28;19912;-63
2021/01/16 08:50:26;;;;;;;;;;;;;;;;;;5073640;28;19944;-62
2021/01/16 08:52:52;;;;;;;;;;;;;;;;;;5078623;28;20983;-62
2021/01/16 08:55:18;;;;;;;;;;;;;;;;;;5093754;28;19943;-62
2021/01/16 08:57:44;;;;;;;;;;;;;;;;;;5093660;28;19922;-62
2021/01/16 09:00:10;;;;;;;;;;;;;;;;;;5094787;28;19965;-62
2021/01/16 09:02:36;;;;;;;;;;;;;;;;;;5097265;28;20450;-62
2021/01/16 09:05:02;;;;;;;;;;;;;;;;;;5088033;28;20000;-62
2021/01/16 09:07:28;;;;;;;;;;;;;;;;;;5077408;28;19978;-62
2021/01/16 09:09:54;;;;;;;;;;;;;;;;;;5077094;28;19953;-62
2021/01/16 09:12:23;;;;;;;;;;;;;;;;;;5077356;28;19915;-61
2021/01/16 09:14:48;;;;;;;;;;;;;;;;;;5076973;28;19929;-60
2021/01/16 09:17:15;;;;;;;;;;;;;;;;;;5081190;28;20030;-60
2021/01/16 09:19:41;;;;;;;;;;;;;;;;;;5086894;28;19915;-61
2021/01/16 09:22:07;;;;;;;;;;;;;;;;;;5076796;28;19950;-61
2021/01/16 09:24:33;;;;;;;;;;;;;;;;;;5076718;28;19940;-61
2021/01/16 09:26:59;;;;;;;;;;;;;;;;;;5077061;28;19954;-62
2021/01/16 09:29:24;;;;;;;;;;;;;;;;;;5076779;28;20395;-60
2021/01/16 09:31:51;;;;;;;;;;;;;;;;;;5076855;28;19946;-60
2021/01/16 09:34:23;;;;;;;;;;;;;;;;;;5076487;28;19976;-60
2021/01/16 09:36:49;;;;;;;;;;;;;;;;;;5076749;28;20004;-60
2021/01/16 09:39:15;;;;;;;;;;;;;;;;;;5079702;28;19912;-59
2021/01/16 09:41:41;;;;;;;;;;;;;;;;;;5094833;28;20445;-60
2021/01/16 09:44:07;;;;;;;;;;;;;;;;;;5095787;28;20029;-60
2021/01/16 09:46:33;;;;;;;;;;;;;;;;;;5091616;28;20335;-59
2021/01/16 09:48:59;;;;;;;;;;;;;;;;;;5092993;28;19908;-60
2021/01/16 09:51:25;;;;;;;;;;;;;;;;;;5087214;28;19920;-60
2021/01/16 09:53:52;;;;;;;;;;;;;;;;;;5090531;28;20353;-60
2021/01/16 09:56:18;;;;;;;;;;;;;;;;;;5078858;28;19931;-58
2021/01/16 09:58:44;;;;;;;;;;;;;;;;;;5074290;28;19967;-60
2021/01/16 10:01:10;;;;;;;;;;;;;;;;;;5074086;28;19925;-58
2021/01/16 10:03:36;;;;;;;;;;;;;;;;;;5074520;28;19985;-60
2021/01/16 10:06:02;;;;;;;;;;;;;;;;;;5087433;28;19946;-61
2021/01/16 10:08:28;;;;;;;;;;;;;;;;;;5095508;28;19981;-61
2021/01/16 10:10:54;;;;;;;;;;;;;;;;;;5095754;28;19976;-61
2021/01/16 10:13:20;;;;;;;;;;;;;;;;;;5088242;28;19925;-59
2021/01/16 10:15:46;;;;;;;;;;;;;;;;;;5083483;28;19922;-59
2021/01/16 10:18:12;;;;;;;;;;;;;;;;;;5083097;28;19952;-60
2021/01/16 10:20:38;;;;;;;;;;;;;;;;;;5085974;28;20284;-60
2021/01/16 10:23:04;;;;;;;;;;;;;;;;;;5078145;28;19947;-60
2021/01/16 10:25:30;;;;;;;;;;;;;;;;;;5077161;28;20029;-59
2021/01/16 10:27:56;;;;;;;;;;;;;;;;;;5080051;28;20387;-60
2021/01/16 10:30:22;;;;;;;;;;;;;;;;;;5080587;28;20280;-60
2021/01/16 10:32:48;;;;;;;;;;;;;;;;;;5095876;28;20357;-60
2021/01/16 10:35:14;;;;;;;;;;;;;;;;;;5088389;28;20389;-62
2021/01/16 10:37:40;;;;;;;;;;;;;;;;;;5075531;28;19953;-61
2021/01/16 10:40:06;;;;;;;;;;;;;;;;;;5095554;28;19922;-61
2021/01/16 10:42:32;;;;;;;;;;;;;;;;;;5095237;28;20314;-61
2021/01/16 10:44:58;;;;;;;;;;;;;;;;;;5084504;28;19915;-61
2021/01/16 10:47:24;;;;;;;;;;;;;;;;;;5075183;28;19923;-61
2021/01/16 10:49:50;;;;;;;;;;;;;;;;;;5075914;28;21249;-60
2021/01/16 10:52:16;;;;;;;;;;;;;;;;;;5085616;28;20407;-60
2021/01/16 10:54:42;;;;;;;;;;;;;;;;;;5075016;28;20001;-61
2021/01/16 10:57:08;;;;;;;;;;;;;;;;;;5075141;28;20421;-62
2021/01/16 10:59:34;;;;;;;;;;;;;;;;;;5092236;28;20040;-62
2021/01/16 11:02:00;;;;;;;;;;;;;;;;;;5088974;28;19961;-62
2021/01/16 11:04:26;;;;;;;;;;;;;;;;;;5073664;28;19927;-62
2021/01/16 11:06:53;;;;;;;;;;;;;;;;;;5074664;28;20037;-62
2021/01/16 11:09:19;;;;;;;;;;;;;;;;;;5075419;28;20361;-61
2021/01/16 11:11:45;;;;;;;;;;;;;;;;;;5076385;28;19985;-62
2021/01/16 11:14:10;;;;;;;;;;;;;;;;;;5073539;28;19909;-62
2021/01/16 11:16:36;;;;;;;;;;;;;;;;;;5074334;28;19942;-61
2021/01/16 11:19:02;;;;;;;;;;;;;;;;;;5074283;28;19999;-62
2021/01/16 11:21:28;;;;;;;;;;;;;;;;;;5074534;28;19917;-62
2021/01/16 11:23:54;;;;;;;;;;;;;;;;;;5073726;28;19945;-62
2021/01/16 11:26:20;;;;;;;;;;;;;;;;;;5074470;28;20426;-62
2021/01/16 11:28:46;;;;;;;;;;;;;;;;;;5074764;28;19923;-63
2021/01/16 11:31:12;;;;;;;;;;;;;;;;;;5074604;28;20365;-62
2021/01/16 11:33:39;;;;;;;;;;;;;;;;;;5074229;28;19908;-62
2021/01/16 11:36:05;;;;;;;;;;;;;;;;;;5074311;28;19919;-62
2021/01/16 11:38:31;;;;;;;;;;;;;;;;;;5074095;28;19920;-62
2021/01/16 11:40:57;;;;;;;;;;;;;;;;;;5074155;28;19930;-62
2021/01/16 11:43:23;;;;;;;;;;;;;;;;;;5074072;28;20043;-62
2021/01/16 11:45:49;;;;;;;;;;;;;;;;;;5074205;28;20287;-62
2021/01/16 11:48:15;;;;;;;;;;;;;;;;;;5074316;28;19926;-62
2021/01/16 11:50:41;;;;;;;;;;;;;;;;;;5074049;28;20023;-62
2021/01/16 11:53:07;;;;;;;;;;;;;;;;;;5073896;28;19959;-62
2021/01/16 11:55:33;;;;;;;;;;;;;;;;;;5074229;28;19908;-62
2021/01/16 11:57:59;;;;;;;;;;;;;;;;;;5073991;28;20380;-62
2021/01/16 12:00:25;;;;;;;;;;;;;;;;;;5074082;28;19908;-62
2021/01/16 12:02:51;;;;;;;;;;;;;;;;;;5073542;28;19928;-61
2021/01/16 12:05:17;;;;;;;;;;;;;;;;;;5074128;28;20389;-62
2021/01/16 12:07:43;;;;;;;;;;;;;;;;;;5073766;28;19924;-61
2021/01/16 12:10:09;;;;;;;;;;;;;;;;;;5073851;28;20017;-61
2021/01/16 12:12:35;;;;;;;;;;;;;;;;;;5074119;28;19919;-62
2021/01/16 12:15:01;;;;;;;;;;;;;;;;;;5073696;28;20411;-62
2021/01/16 12:17:27;;;;;;;;;;;;;;;;;;5073687;28;19988;-62
2021/01/16 12:19:53;;;;;;;;;;;;;;;;;;5073830;28;19997;-62
2021/01/16 12:22:19;;;;;;;;;;;;;;;;;;5073638;28;19978;-62
2021/01/16 12:24:45;;;;;;;;;;;;;;;;;;5073529;28;20039;-62
2021/01/16 12:27:11;;;;;;;;;;;;;;;;;;5073529;28;20362;-61
2021/01/16 12:29:38;;;;;;;;;;;;;;;;;;5073528;28;19925;-61
2021/01/16 12:32:03;;;;;;;;;;;;;;;;;;5073895;28;20316;-61
2021/01/16 12:34:29;;;;;;;;;;;;;;;;;;5075615;28;19909;-62
2021/01/16 12:36:55;;;;;;;;;;;;;;;;;;5077924;28;20332;-61
2021/01/16 12:39:21;;;;;;;;;;;;;;;;;;5077896;28;20024;-62
2021/01/16 12:41:47;;;;;;;;;;;;;;;;;;5077799;28;19951;-61
2021/01/16 12:44:13;;;;;;;;;;;;;;;;;;5077541;28;20108;-61
2021/01/16 12:46:39;;;;;;;;;;;;;;;;;;5077577;28;20365;-61
2021/01/16 12:49:05;;;;;;;;;;;;;;;;;;5077588;28;19925;-61
2021/01/16 12:51:31;;;;;;;;;;;;;;;;;;5077491;28;20006;-62
2021/01/16 12:53:57;;;;;;;;;;;;;;;;;;5077376;28;19943;-61
2021/01/16 12:56:24;;;;;;;;;;;;;;;;;;5077304;28;19985;-61
2021/01/16 12:58:50;;;;;;;;;;;;;;;;;;5077484;28;19950;-61
2021/01/16 13:01:16;;;;;;;;;;;;;;;;;;5077225;28;20475;-61
2021/01/16 13:03:42;;;;;;;;;;;;;;;;;;5077380;28;20013;-61
2021/01/16 13:06:08;;;;;;;;;;;;;;;;;;5077252;28;19987;-61
2021/01/16 13:08:34;;;;;;;;;;;;;;;;;;5076774;28;20014;-61
2021/01/16 13:11:00;;;;;;;;;;;;;;;;;;5076910;28;19953;-61
2021/01/16 13:13:26;;;;;;;;;;;;;;;;;;5076943;28;19908;-61
2021/01/16 13:15:54;;;;;;;;;;;;;;;;;;5077028;28;19991;-61
2021/01/16 13:18:20;;;;;;;;;;;;;;;;;;5076817;28;19956;-61
2021/01/16 13:20:47;;;;;;;;;;;;;;;;;;5076767;28;19930;-61
2021/01/16 13:23:13;;;;;;;;;;;;;;;;;;5076723;28;20418;-61
2021/01/16 13:25:39;;;;;;;;;;;;;;;;;;5076842;28;20017;-61
2021/01/16 13:28:04;;;;;;;;;;;;;;;;;;5076966;28;20308;-61
2021/01/16 13:30:30;;;;;;;;;;;;;;;;;;5076631;28;19924;-61
2021/01/16 13:32:56;;;;;;;;;;;;;;;;;;5076732;28;19909;-61
2021/01/16 13:35:22;;;;;;;;;;;;;;;;;;5076607;28;20357;-61
2021/01/16 13:37:48;;;;;;;;;;;;;;;;;;5076636;28;19972;-62
2021/01/16 13:40:14;;;;;;;;;;;;;;;;;;5076528;28;19923;-62
2021/01/16 13:42:40;;;;;;;;;;;;;;;;;;5076499;28;20011;-62
2021/01/16 13:45:06;;;;;;;;;;;;;;;;;;5076241;28;19908;-61
2021/01/16 13:47:32;;;;;;;;;;;;;;;;;;5075919;28;19955;-62
2021/01/16 13:49:58;;;;;;;;;;;;;;;;;;5076337;28;20408;-62
2021/01/16 13:52:24;;;;;;;;;;;;;;;;;;5076231;28;19916;-62
2021/01/16 13:54:50;;;;;;;;;;;;;;;;;;5076281;28;19919;-62
2021/01/16 13:57:16;;;;;;;;;;;;;;;;;;5076130;28;20000;-62
2021/01/16 13:59:42;;;;;;;;;;;;;;;;;;5076108;28;19926;-62
2021/01/16 14:02:08;;;;;;;;;;;;;;;;;;5075835;28;19956;-62
2021/01/16 14:04:34;;;;;;;;;;;;;;;;;;5075999;28;19964;-62
2021/01/16 14:07:04;;;;;;;;;;;;;;;;;;5076064;28;19931;-62
2021/01/16 14:09:30;;;;;;;;;;;;;;;;;;5075863;28;19989;-62
2021/01/16 14:12:03;;;;;;;;;;;;;;;;;;5074675;28;19945;-63
2021/01/16 14:14:31;;;;;;;;;;;;;;;;;;5076189;28;19983;-62
2021/01/16 14:16:57;;;;;;;;;;;;;;;;;;5075859;28;19944;-61
2021/01/16 14:19:23;;;;;;;;;;;;;;;;;;5075701;28;19967;-61
2021/01/16 14:21:49;;;;;;;;;;;;;;;;;;5076071;28;19920;-61
2021/01/16 14:24:14;;;;;;;;;;;;;;;;;;5075535;28;20419;-61
2021/01/16 14:26:40;;;;;;;;;;;;;;;;;;5075904;28;20010;-61
2021/01/16 14:29:06;;;;;;;;;;;;;;;;;;5075784;28;19927;-61
2021/01/16 14:31:32;;;;;;;;;;;;;;;;;;5075745;28;19930;-61
2021/01/16 14:33:59;;;;;;;;;;;;;;;;;;5075500;28;20353;-61
2021/01/16 14:36:25;;;;;;;;;;;;;;;;;;5075377;28;19908;-61
2021/01/16 14:38:50;;;;;;;;;;;;;;;;;;5075360;28;19924;-61
2021/01/16 14:41:16;;;;;;;;;;;;;;;;;;5075374;28;19912;-62
2021/01/16 14:43:42;;;;;;;;;;;;;;;;;;5075497;28;20346;-62
2021/01/16 14:46:08;;;;;;;;;;;;;;;;;;5075260;28;19909;-62
2021/01/16 14:48:34;;;;;;;;;;;;;;;;;;5075128;28;19923;-62
2021/01/16 14:51:00;;;;;;;;;;;;;;;;;;5075410;28;20258;-62
2021/01/16 14:53:26;;;;;;;;;;;;;;;;;;5075096;28;19919;-62
2021/01/16 14:55:52;;;;;;;;;;;;;;;;;;5075075;28;20007;-61
2021/01/16 14:58:19;;;;;;;;;;;;;;;;;;5074013;28;20431;-61
2021/01/16 15:00:45;;;;;;;;;;;;;;;;;;5075035;28;20022;-62
2021/01/16 15:03:11;;;;;;;;;;;;;;;;;;5074679;28;19990;-61
2021/01/16 15:05:40;;;;;;;;;;;;;;;;;;5074734;28;19928;-61
2021/01/16 15:08:06;;;;;;;;;;;;;;;;;;5075004;28;20043;-61
2021/01/16 15:10:33;;;;;;;;;;;;;;;;;;5074813;28;19919;-61
2021/01/16 15:12:59;;;;;;;;;;;;;;;;;;5074925;28;20301;-61
2021/01/16 15:15:25;;;;;;;;;;;;;;;;;;5074613;28;19956;-61
2021/01/16 15:17:51;;;;;;;;;;;;;;;;;;5074684;28;20336;-62
2021/01/16 15:20:16;;;;;;;;;;;;;;;;;;5074434;28;20002;-61
2021/01/16 15:22:42;;;;;;;;;;;;;;;;;;5074375;28;20307;-61
2021/01/16 15:25:08;;;;;;;;;;;;;;;;;;5074412;28;19977;-61
2021/01/16 15:27:34;;;;;;;;;;;;;;;;;;5074495;28;19912;-62
2021/01/16 15:30:00;;;;;;;;;;;;;;;;;;5074281;28;20042;-61
2021/01/16 15:32:27;;;;;;;;;;;;;;;;;;5074476;28;19956;-62
2021/01/16 15:34:53;;;;;;;;;;;;;;;;;;5074325;28;19912;-61
2021/01/16 15:37:20;;;;;;;;;;;;;;;;;;5074105;28;19931;-61
2021/01/16 15:39:46;;;;;;;;;;;;;;;;;;5074444;28;19919;-62
2021/01/16 15:42:12;;;;;;;;;;;;;;;;;;5074340;28;20364;-62
2021/01/16 15:44:38;;;;;;;;;;;;;;;;;;5074383;28;19908;-61
2021/01/16 15:47:04;;;;;;;;;;;;;;;;;;5074262;28;20381;-61
2021/01/16 15:49:30;;;;;;;;;;;;;;;;;;5074065;28;19921;-62
2021/01/16 15:51:56;;;;;;;;;;;;;;;;;;5074319;28;19947;-61
2021/01/16 15:54:22;;;;;;;;;;;;;;;;;;5074020;28;20019;-61
2021/01/16 15:56:48;;;;;;;;;;;;;;;;;;5073867;28;20320;-61
2021/01/16 15:59:14;;;;;;;;;;;;;;;;;;5073903;28;19944;-62
2021/01/16 16:01:40;;;;;;;;;;;;;;;;;;5073553;28;19964;-61
2021/01/16 16:04:06;;;;;;;;;;;;;;;;;;5074108;28;19925;-61
2021/01/16 16:06:32;;;;;;;;;;;;;;;;;;5073721;28;20254;-61
2021/01/16 16:08:58;;;;;;;;;;;;;;;;;;5072146;28;19984;-61
2021/01/16 16:11:24;;;;;;;;;;;;;;;;;;5073828;28;19951;-61
2021/01/16 16:13:51;;;;;;;;;;;;;;;;;;5073651;28;20019;-61
2021/01/16 16:16:17;;;;;;;;;;;;;;;;;;5073723;28;19963;-62
2021/01/16 16:18:43;;;;;;;;;;;;;;;;;;5073588;28;19912;-61
2021/01/16 16:21:09;;;;;;;;;;;;;;;;;;5073606;28;19913;-62
2021/01/16 16:23:35;;;;;;;;;;;;;;;;;;5073692;28;19936;-62
2021/01/16 16:26:01;;;;;;;;;;;;;;;;;;5073458;28;19920;-61
2021/01/16 16:28:27;;;;;;;;;;;;;;;;;;5073468;28;20039;-61
2021/01/16 16:30:53;;;;;;;;;;;;;;;;;;5073421;28;20020;-61
2021/01/16 16:33:19;;;;;;;;;;;;;;;;;;5073632;28;19908;-60
2021/01/16 16:35:45;;;;;;;;;;;;;;;;;;5073574;28;20438;-61
2021/01/16 16:38:13;;;;;;;;;;;;;;;;;;5073497;28;20003;-61